createdAt,value
2022-10-22T00:00:29.430Z,2.55
2022-10-22T00:03:16.899Z,4.07
2022-10-22T00:06:03.526Z,3.67
2022-10-22T00:08:51.219Z,3.08
2022-10-22T00:11:34.424Z,3.83
2022-10-22T00:14:10.080Z,2.80
2022-10-22T00:16:40.445Z,3.22
2022-10-22T00:19:11.059Z,3.05
2022-10-22T00:21:40.053Z,3.05
2022-10-22T00:24:09.592Z,3.25
2022-10-22T00:26:40.880Z,4.60
2022-10-22T00:29:28.416Z,3.35
2022-10-22T00:32:13.172Z,3.65
2022-10-22T00:34:51.774Z,4.57
2022-10-22T00:37:39.257Z,3.30
2022-10-22T00:40:26.857Z,3.40
2022-10-22T00:43:15.884Z,2.75
2022-10-22T00:45:46.928Z,4.22
2022-10-22T00:48:34.670Z,3.40
2022-10-22T00:51:07.358Z,2.92
2022-10-22T00:53:37.683Z,4.63
2022-10-22T00:56:06.753Z,3.92
2022-10-22T00:58:37.417Z,3.63
2022-10-22T01:01:07.461Z,3.38
2022-10-22T01:03:43.720Z,4.50
2022-10-22T01:06:19.967Z,3.60
2022-10-22T01:09:04.276Z,3.22
2022-10-22T01:11:41.019Z,3.60
2022-10-22T01:14:28.024Z,3.22
2022-10-22T01:17:00.401Z,4.18
2022-10-22T01:19:39.652Z,3.47
2022-10-22T01:22:16.766Z,3.80
2022-10-22T01:25:03.629Z,3.90
2022-10-22T01:27:39.395Z,3.70
2022-10-22T01:30:08.820Z,3.40
2022-10-22T01:32:49.266Z,3.58
2022-10-22T01:35:20.430Z,3.90
2022-10-22T01:37:54.402Z,3.80
2022-10-22T01:40:24.080Z,4.30
2022-10-22T01:42:57.527Z,3.72
2022-10-22T01:45:26.573Z,4.05
2022-10-22T01:48:04.829Z,3.80
2022-10-22T01:50:47.591Z,4.13
2022-10-22T01:53:20.094Z,3.80
2022-10-22T01:56:06.641Z,4.32
2022-10-22T01:58:44.222Z,4.43
2022-10-22T02:01:16.496Z,3.40
2022-10-22T02:03:53.286Z,5.03
2022-10-22T02:06:22.257Z,3.58
2022-10-22T02:08:51.357Z,4.03
2022-10-22T02:11:21.150Z,3.85
2022-10-22T02:13:52.348Z,4.00
2022-10-22T02:16:25.904Z,3.75
2022-10-22T02:19:05.565Z,4.35
2022-10-22T02:21:44.303Z,4.15
2022-10-22T02:24:13.584Z,3.80
2022-10-22T02:26:54.318Z,3.97
2022-10-22T02:29:27.280Z,4.53
2022-10-22T02:31:57.827Z,4.22
2022-10-22T02:34:30.371Z,3.80
2022-10-22T02:37:00.737Z,4.05
2022-10-22T02:42:03.856Z,4.55
2022-10-22T02:44:44.098Z,4.55
2022-10-22T02:47:14.891Z,4.00
2022-10-22T02:49:42.960Z,5.45
2022-10-22T02:52:12.007Z,3.97
2022-10-22T02:54:44.663Z,5.03
2022-10-22T02:57:12.817Z,4.05
2022-10-22T02:59:43.841Z,4.50
2022-10-22T03:02:13.872Z,4.82
2022-10-22T03:04:43.258Z,4.07
2022-10-22T03:07:12.925Z,5.05
2022-10-22T03:09:41.244Z,5.97
2022-10-22T03:12:09.742Z,4.60
2022-10-22T03:14:38.137Z,5.15
2022-10-22T03:17:07.032Z,4.70
2022-10-22T03:19:35.830Z,5.25
2022-10-22T03:22:10.787Z,4.63
2022-10-22T03:24:50.025Z,5.63
2022-10-22T03:27:21.104Z,5.65
2022-10-22T03:29:52.552Z,5.45
2022-10-22T03:32:22.988Z,4.68
2022-10-22T03:34:53.052Z,4.80
2022-10-22T03:37:22.012Z,4.70
2022-10-22T03:39:50.217Z,6.10
2022-10-22T03:42:18.640Z,5.25
2022-10-22T03:44:46.823Z,4.70
2022-10-22T03:47:15.221Z,5.55
2022-10-22T03:49:43.720Z,5.10
2022-10-22T03:52:14.332Z,5.32
2022-10-22T03:54:43.083Z,5.60
2022-10-22T03:57:17.109Z,5.55
2022-10-22T03:59:46.446Z,5.30
2022-10-22T04:02:15.239Z,6.38
2022-10-22T04:04:43.784Z,4.90
2022-10-22T04:07:13.774Z,5.13
2022-10-22T04:09:42.120Z,4.65
2022-10-22T04:12:11.144Z,5.35
2022-10-22T04:14:40.648Z,5.82
2022-10-22T04:17:10.257Z,5.10
2022-10-22T04:19:39.981Z,5.20
2022-10-22T04:22:08.321Z,5.00
2022-10-22T04:24:37.113Z,5.15
2022-10-22T04:27:06.309Z,6.35
2022-10-22T04:29:38.213Z,5.80
2022-10-22T04:32:06.613Z,5.60
2022-10-22T04:34:36.738Z,5.75
2022-10-22T04:37:07.333Z,5.53
2022-10-22T04:39:36.988Z,6.32
2022-10-22T04:42:06.317Z,5.88
2022-10-22T04:44:35.736Z,5.93
2022-10-22T04:47:10.266Z,5.28
2022-10-22T04:49:38.584Z,5.50
2022-10-22T04:52:07.125Z,5.30
2022-10-22T04:54:37.000Z,5.47
2022-10-22T04:57:16.261Z,5.50
2022-10-22T04:59:45.281Z,6.38
2022-10-22T05:02:13.507Z,5.93
2022-10-22T05:04:44.524Z,5.70
2022-10-22T05:07:12.813Z,6.22
2022-10-22T05:09:42.105Z,6.00
2022-10-22T05:12:12.046Z,6.63
2022-10-22T05:14:43.949Z,5.60
2022-10-22T05:17:31.365Z,5.97
2022-10-22T05:20:05.013Z,5.40
2022-10-22T05:22:39.552Z,6.18
2022-10-22T05:25:09.685Z,6.15
2022-10-22T05:27:49.509Z,6.18
2022-10-22T05:30:18.675Z,5.65
2022-10-22T05:33:00.083Z,5.55
2022-10-22T05:35:29.017Z,5.57
2022-10-22T05:40:32.455Z,6.03
2022-10-22T05:43:00.668Z,6.15
2022-10-22T05:45:29.871Z,5.60
2022-10-22T05:47:58.562Z,5.97
2022-10-22T05:50:27.042Z,5.63
2022-10-22T05:52:55.748Z,6.85
2022-10-22T05:55:24.766Z,6.45
2022-10-22T05:57:54.038Z,6.25
2022-10-22T06:00:23.158Z,6.30
2022-10-22T06:03:06.201Z,8.05
2022-10-22T06:05:36.196Z,6.95
2022-10-22T06:08:06.515Z,6.20
2022-10-22T06:10:42.843Z,6.75
2022-10-22T06:13:12.664Z,6.95
2022-10-22T06:15:44.837Z,5.90
2022-10-22T06:18:14.521Z,6.45
2022-10-22T06:20:43.657Z,5.72
2022-10-22T06:23:12.064Z,4.85
2022-10-22T06:25:40.352Z,6.22
2022-10-22T06:28:12.175Z,5.40
2022-10-22T06:30:45.888Z,5.47
2022-10-22T06:33:25.825Z,6.80
2022-10-22T06:35:57.574Z,5.45
2022-10-22T06:38:26.556Z,5.97
2022-10-22T06:40:54.804Z,5.65
2022-10-22T06:43:27.617Z,4.90
2022-10-22T06:46:00.092Z,5.93
2022-10-22T06:48:29.303Z,5.43
2022-10-22T06:51:02.274Z,5.25
2022-10-22T06:56:00.814Z,4.38
2022-10-22T06:58:31.747Z,5.20
2022-10-22T07:01:05.269Z,4.93
2022-10-22T07:03:41.383Z,5.20
2022-10-22T07:06:13.050Z,5.93
2022-10-22T07:08:42.604Z,4.82
2022-10-22T07:11:13.877Z,5.38
2022-10-22T07:13:43.888Z,4.65
2022-10-22T07:16:13.260Z,5.65
2022-10-22T07:18:42.221Z,4.57
2022-10-22T07:21:11.675Z,4.22
2022-10-22T07:23:41.698Z,4.40
2022-10-22T07:26:13.351Z,4.43
2022-10-22T07:28:42.145Z,4.25
2022-10-22T07:31:11.295Z,3.90
2022-10-22T07:33:40.414Z,4.05
2022-10-22T07:36:11.934Z,4.07
2022-10-22T07:38:42.407Z,3.75
2022-10-22T07:41:14.382Z,4.10
2022-10-22T07:43:43.063Z,3.90
2022-10-22T07:46:12.890Z,4.03
2022-10-22T07:48:41.683Z,4.13
2022-10-22T07:51:14.577Z,3.38
2022-10-22T07:53:43.513Z,3.90
2022-10-22T07:56:13.896Z,3.67
2022-10-22T07:58:44.540Z,3.47
2022-10-22T08:01:15.780Z,3.45
2022-10-22T08:03:46.126Z,3.03
2022-10-22T08:06:14.848Z,3.70
2022-10-22T08:08:45.669Z,3.38
2022-10-22T08:11:14.089Z,6.78
2022-10-22T08:13:45.612Z,3.95
2022-10-22T08:16:14.951Z,3.60
2022-10-22T08:18:44.002Z,3.22
2022-10-22T08:21:17.072Z,3.78
2022-10-22T08:23:46.522Z,5.68
2022-10-22T08:26:17.125Z,3.13
2022-10-22T08:28:49.021Z,3.72
2022-10-22T08:31:18.973Z,2.53
2022-10-22T08:33:48.116Z,2.78
2022-10-22T08:36:19.428Z,3.67
2022-10-22T08:38:54.782Z,3.45
2022-10-22T08:41:24.683Z,3.15
2022-10-22T08:44:14.708Z,2.95
2022-10-22T08:46:58.709Z,2.78
2022-10-22T08:49:28.768Z,2.55
2022-10-22T08:51:58.282Z,2.42
2022-10-22T08:54:46.361Z,3.28
2022-10-22T08:57:19.430Z,4.40
2022-10-22T08:59:52.350Z,2.80
2022-10-22T09:02:31.318Z,2.60
2022-10-22T09:05:10.030Z,2.17
2022-10-22T09:07:43.286Z,2.10
2022-10-22T09:10:13.289Z,2.83
2022-10-22T09:12:43.163Z,4.28
2022-10-22T09:15:15.889Z,3.05
2022-10-22T09:17:53.949Z,2.58
2022-10-22T09:20:28.522Z,1.95
2022-10-22T09:23:06.078Z,2.00
2022-10-22T09:25:37.114Z,7.53
2022-10-22T09:28:05.647Z,2.00
2022-10-22T09:30:37.943Z,2.22
2022-10-22T09:33:26.940Z,1.83
2022-10-22T09:35:58.110Z,2.28
2022-10-22T09:38:29.118Z,2.03
2022-10-22T09:41:00.485Z,1.83
2022-10-22T09:43:28.865Z,2.22
2022-10-22T09:46:00.306Z,2.85
2022-10-22T09:48:34.286Z,4.07
2022-10-22T09:51:16.514Z,1.60
2022-10-22T09:53:48.457Z,1.77
2022-10-22T09:56:24.849Z,1.70
2022-10-22T09:58:53.410Z,1.67
2022-10-22T10:01:40.867Z,2.85
2022-10-22T10:04:12.285Z,1.63
2022-10-22T10:06:42.397Z,2.17
2022-10-22T10:09:16.910Z,1.58
2022-10-22T10:14:21.160Z,1.63
2022-10-22T10:16:49.141Z,1.75
2022-10-22T10:19:20.105Z,1.77
2022-10-22T10:21:57.296Z,1.38
2022-10-22T10:24:28.028Z,3.00
2022-10-22T10:26:59.495Z,8.80
2022-10-22T10:29:31.110Z,1.83
2022-10-22T10:32:02.141Z,1.40
2022-10-22T10:34:33.830Z,1.50
2022-10-22T10:37:10.870Z,1.27
2022-10-22T10:39:59.800Z,1.33
2022-10-22T10:42:36.877Z,1.30
2022-10-22T10:45:19.837Z,1.17
2022-10-22T10:47:57.034Z,2.22
2022-10-22T10:50:34.481Z,1.63
2022-10-22T10:53:18.601Z,1.17
2022-10-22T10:56:00.544Z,1.30
2022-10-22T10:58:52.845Z,1.20
2022-10-22T11:01:26.847Z,0.90
2022-10-22T11:03:55.211Z,2.30
2022-10-22T11:06:25.583Z,2.28
2022-10-22T11:08:59.781Z,1.05
2022-10-22T11:11:32.775Z,2.40
2022-10-22T11:14:10.318Z,1.48
2022-10-22T11:16:41.664Z,0.80
2022-10-22T11:19:22.587Z,0.82
2022-10-22T11:22:16.787Z,1.02
2022-10-22T11:25:07.379Z,2.53
2022-10-22T11:27:43.506Z,1.27
2022-10-22T11:30:12.171Z,0.90
2022-10-22T11:32:59.923Z,1.15
2022-10-22T11:35:31.726Z,0.95
2022-10-22T11:38:00.913Z,1.38
2022-10-22T11:40:29.489Z,0.73
2022-10-22T11:42:58.879Z,0.82
2022-10-22T11:45:30.362Z,0.98
2022-10-22T11:47:58.405Z,0.68
2022-10-22T11:50:27.062Z,1.35
2022-10-22T11:53:05.681Z,1.17
2022-10-22T11:55:34.137Z,1.10
2022-10-22T11:58:03.985Z,0.88
2022-10-22T12:00:48.939Z,0.70
2022-10-22T12:03:18.165Z,0.80
2022-10-22T12:05:47.265Z,1.10
2022-10-22T12:08:23.391Z,0.80
2022-10-22T12:11:03.356Z,0.68
2022-10-22T12:13:32.778Z,0.75
2022-10-22T12:16:03.522Z,0.98
2022-10-22T12:18:35.208Z,0.90
2022-10-22T12:21:04.231Z,1.00
2022-10-22T12:23:35.229Z,0.77
2022-10-22T12:26:04.485Z,1.15
2022-10-22T12:28:39.728Z,1.05
2022-10-22T12:31:16.245Z,1.10
2022-10-22T12:33:45.305Z,0.80
2022-10-22T12:36:17.829Z,1.00
2022-10-22T12:38:48.106Z,1.00
2022-10-22T12:41:17.255Z,4.22
2022-10-22T12:43:46.615Z,1.92
2022-10-22T12:46:16.956Z,1.00
2022-10-22T12:48:46.395Z,1.52
2022-10-22T12:51:20.850Z,1.10
2022-10-22T12:53:54.370Z,1.05
2022-10-22T12:56:31.293Z,0.75
2022-10-22T12:59:16.364Z,0.88
2022-10-22T13:01:45.922Z,1.50
2022-10-22T13:04:17.435Z,0.70
2022-10-22T13:06:46.936Z,1.17
2022-10-22T13:09:19.677Z,0.65
2022-10-22T13:11:51.550Z,1.40
2022-10-22T13:14:27.799Z,1.10
2022-10-22T13:17:16.067Z,1.10
2022-10-22T13:19:53.428Z,0.90
2022-10-22T13:22:37.908Z,0.52
2022-10-22T13:25:20.346Z,1.10
2022-10-22T13:27:56.376Z,0.60
2022-10-22T13:30:26.753Z,0.57
2022-10-22T13:33:09.077Z,1.60
2022-10-22T13:35:39.259Z,2.50
2022-10-22T13:38:28.025Z,1.40
2022-10-22T13:40:56.845Z,0.65
2022-10-22T13:43:27.123Z,0.85
2022-10-22T13:45:58.801Z,1.05
2022-10-22T13:48:29.286Z,0.63
2022-10-22T13:50:59.000Z,0.60
2022-10-22T13:53:30.201Z,0.70
2022-10-22T13:56:00.805Z,1.10
2022-10-22T13:58:34.609Z,0.57
2022-10-22T14:01:08.728Z,1.05
2022-10-22T14:03:38.702Z,0.50
2022-10-22T14:06:12.914Z,0.65
2022-10-22T14:08:41.598Z,1.00
2022-10-22T14:11:12.058Z,0.55
2022-10-22T14:13:45.693Z,0.70
2022-10-22T14:16:17.401Z,1.55
2022-10-22T14:18:52.142Z,0.77
2022-10-22T14:21:22.936Z,2.15
2022-10-22T14:23:52.679Z,0.95
2022-10-22T14:26:27.324Z,0.75
2022-10-22T14:31:43.257Z,1.70
2022-10-22T14:34:13.318Z,0.80
2022-10-22T14:36:48.349Z,0.80
2022-10-22T14:39:18.299Z,0.98
2022-10-22T14:41:48.852Z,1.30
2022-10-22T14:44:17.605Z,1.15
2022-10-22T14:46:47.456Z,1.58
2022-10-22T14:49:17.948Z,0.95
2022-10-22T14:51:46.221Z,1.08
2022-10-22T14:54:14.741Z,0.73
2022-10-22T14:56:45.265Z,0.68
2022-10-22T14:59:15.608Z,1.98
2022-10-22T15:01:46.734Z,0.85
2022-10-22T15:04:16.631Z,0.73
2022-10-22T15:06:45.169Z,0.80
2022-10-22T15:09:13.505Z,0.60
2022-10-22T15:11:42.652Z,3.30
2022-10-22T15:14:11.215Z,1.50
2022-10-22T15:16:40.256Z,1.45
2022-10-22T15:19:08.733Z,1.48
2022-10-22T15:21:37.663Z,1.10
2022-10-22T15:24:06.763Z,0.95
2022-10-22T15:26:35.958Z,0.90
2022-10-22T15:29:05.373Z,0.90
2022-10-22T15:31:54.717Z,0.90
2022-10-22T15:34:27.778Z,0.65
2022-10-22T15:36:59.001Z,1.10
2022-10-22T15:39:33.048Z,0.90
2022-10-22T15:42:02.107Z,1.48
2022-10-22T15:44:33.722Z,0.90
2022-10-22T15:47:04.941Z,0.98
2022-10-22T15:49:34.841Z,0.90
2022-10-22T15:52:04.445Z,1.40
2022-10-22T15:54:38.851Z,3.33
2022-10-22T15:57:10.746Z,13.95
2022-10-22T15:59:41.781Z,10.38
2022-10-22T16:02:12.837Z,6.28
2022-10-22T16:04:42.037Z,3.83
2022-10-22T16:07:10.688Z,1.40
2022-10-22T16:09:40.501Z,4.82
2022-10-22T16:12:09.010Z,9.02
2022-10-22T16:14:39.214Z,5.43
2022-10-22T16:17:10.727Z,2.53
2022-10-22T16:19:39.363Z,1.38
2022-10-22T16:22:14.282Z,1.17
2022-10-22T16:24:47.669Z,2.03
2022-10-22T16:27:21.183Z,1.15
2022-10-22T16:29:53.049Z,1.23
2022-10-22T16:32:23.123Z,1.50
2022-10-22T16:34:52.295Z,1.27
2022-10-22T16:37:23.265Z,1.00
2022-10-22T16:39:54.181Z,1.67
2022-10-22T16:42:36.593Z,1.10
2022-10-22T16:45:08.455Z,1.48
2022-10-22T16:47:43.013Z,1.48
2022-10-22T16:50:12.427Z,1.67
2022-10-22T16:52:45.193Z,3.17
2022-10-22T16:55:13.670Z,3.25
2022-10-22T16:57:44.694Z,2.05
2022-10-22T17:00:14.404Z,2.53
2022-10-22T17:03:07.479Z,1.88
2022-10-22T17:05:46.713Z,11.73
2022-10-22T17:08:23.237Z,17.27
2022-10-22T17:10:53.889Z,8.00
2022-10-22T17:13:23.566Z,2.10
2022-10-22T17:15:52.197Z,2.08
2022-10-22T17:18:23.066Z,2.05
2022-10-22T17:21:01.170Z,1.65
2022-10-22T17:23:37.654Z,4.53
2022-10-22T17:26:08.117Z,3.45
2022-10-22T17:28:37.506Z,4.55
2022-10-22T17:31:11.178Z,3.10
2022-10-22T17:33:40.028Z,2.58
2022-10-22T17:36:20.162Z,3.03
2022-10-22T17:39:02.841Z,1.90
2022-10-22T17:41:36.519Z,1.60
2022-10-22T17:44:13.820Z,1.45
2022-10-22T17:46:47.133Z,1.52
2022-10-22T17:49:22.620Z,1.40
2022-10-22T17:52:03.330Z,1.95
2022-10-22T17:54:38.876Z,1.63
2022-10-22T17:57:08.263Z,2.15
2022-10-22T17:59:44.923Z,1.52
2022-10-22T18:02:17.222Z,1.90
2022-10-22T18:04:46.298Z,1.60
2022-10-22T18:07:23.522Z,2.58
2022-10-22T18:09:52.340Z,3.10
2022-10-22T18:12:22.921Z,2.10
2022-10-22T18:14:56.089Z,4.80
2022-10-22T18:17:27.455Z,2.70
2022-10-22T18:20:00.376Z,1.95
2022-10-22T18:22:36.863Z,1.88
2022-10-22T18:25:06.171Z,2.33
2022-10-22T18:27:42.433Z,2.05
2022-10-22T18:30:18.508Z,1.80
2022-10-22T18:33:06.080Z,1.73
2022-10-22T18:35:37.120Z,3.78
2022-10-22T18:38:05.729Z,1.98
2022-10-22T18:40:36.884Z,2.30
2022-10-22T18:43:05.340Z,2.72
2022-10-22T18:45:34.225Z,3.05
2022-10-22T18:48:03.167Z,2.53
2022-10-22T18:50:33.638Z,2.00
2022-10-22T18:53:02.876Z,2.20
2022-10-22T18:55:31.792Z,2.65
2022-10-22T18:58:00.865Z,2.45
2022-10-22T19:00:30.568Z,2.22
2022-10-22T19:03:16.950Z,2.92
2022-10-22T19:05:50.043Z,2.28
2022-10-22T19:08:25.201Z,2.30
2022-10-22T19:11:04.123Z,2.45
2022-10-22T19:13:33.726Z,2.88
2022-10-22T19:16:05.102Z,2.90
2022-10-22T19:18:38.468Z,2.75
2022-10-22T19:21:06.984Z,2.40
2022-10-22T19:23:35.912Z,3.95
2022-10-22T19:26:11.804Z,11.27
2022-10-22T19:28:40.567Z,8.15
2022-10-22T19:31:10.321Z,3.55
2022-10-22T19:33:39.707Z,5.60
2022-10-22T19:36:09.379Z,2.83
2022-10-22T19:38:39.668Z,2.78
2022-10-22T19:41:08.618Z,2.90
2022-10-22T19:43:38.827Z,2.72
2022-10-22T19:46:15.737Z,14.75
2022-10-22T19:48:56.956Z,13.57
2022-10-22T19:51:27.442Z,7.13
2022-10-22T19:53:59.937Z,4.90
2022-10-22T19:56:38.357Z,2.85
2022-10-22T19:59:15.743Z,3.08
2022-10-22T20:01:52.761Z,2.95
2022-10-22T20:04:31.104Z,2.95
2022-10-22T20:07:01.024Z,2.55
2022-10-22T20:09:42.485Z,2.78
2022-10-22T20:12:15.189Z,3.00
2022-10-22T20:14:46.549Z,2.30
2022-10-22T20:17:16.577Z,2.90
2022-10-22T20:19:45.037Z,2.42
2022-10-22T20:22:16.247Z,2.22
2022-10-22T20:24:47.715Z,2.50
2022-10-22T20:27:19.060Z,2.17
2022-10-22T20:29:51.051Z,2.00
2022-10-22T20:34:56.352Z,3.15
2022-10-22T20:37:25.176Z,2.30
2022-10-22T20:39:53.603Z,2.20
2022-10-22T20:42:22.260Z,2.40
2022-10-22T20:44:50.903Z,2.15
2022-10-22T20:47:19.501Z,2.33
2022-10-22T20:49:49.460Z,2.42
2022-10-22T20:52:18.185Z,2.25
2022-10-22T20:54:46.705Z,2.20
2022-10-22T20:57:15.120Z,2.33
2022-10-22T20:59:44.076Z,2.30
2022-10-22T21:02:16.262Z,2.80
2022-10-22T21:04:53.439Z,2.55
2022-10-22T21:07:26.787Z,2.53
2022-10-22T21:10:02.489Z,3.05
2022-10-22T21:12:32.963Z,2.25
2022-10-22T21:15:01.888Z,2.63
2022-10-22T21:17:35.703Z,2.70
2022-10-22T21:20:04.196Z,3.17
2022-10-22T21:22:50.699Z,2.33
2022-10-22T21:25:29.638Z,2.42
2022-10-22T21:28:06.812Z,2.10
2022-10-22T21:30:47.173Z,2.25
2022-10-22T21:33:25.692Z,2.60
2022-10-22T21:35:56.324Z,2.10
2022-10-22T21:38:25.692Z,2.60
2022-10-22T21:40:53.996Z,2.47
2022-10-22T21:46:12.495Z,1.83
2022-10-22T21:48:57.265Z,2.85
2022-10-22T21:51:35.265Z,2.20
2022-10-22T21:54:08.380Z,2.10
2022-10-22T21:56:37.529Z,3.13
2022-10-22T21:59:07.887Z,2.78
2022-10-22T22:01:36.240Z,2.20
2022-10-22T22:04:16.504Z,2.08
2022-10-22T22:07:04.145Z,2.28
2022-10-22T22:09:35.713Z,1.90
2022-10-22T22:12:09.553Z,1.90
2022-10-22T22:14:45.256Z,2.13
2022-10-22T22:17:27.195Z,2.03
2022-10-22T22:20:09.181Z,1.98
2022-10-22T22:22:52.636Z,2.30
2022-10-22T22:25:21.067Z,2.38
2022-10-22T22:27:49.885Z,2.67
2022-10-22T22:30:18.959Z,1.40
2022-10-22T22:32:58.400Z,2.70
2022-10-22T22:35:30.272Z,2.10
2022-10-22T22:38:03.459Z,2.65
2022-10-22T22:40:38.760Z,2.58
2022-10-22T22:43:13.893Z,2.10
2022-10-22T22:45:43.444Z,1.80
2022-10-22T22:48:11.658Z,2.17
2022-10-22T22:50:40.166Z,2.10
2022-10-22T22:53:09.250Z,2.55
2022-10-22T22:55:39.135Z,2.40
2022-10-22T22:58:08.976Z,1.95
2022-10-22T23:00:37.330Z,1.75
2022-10-22T23:03:17.785Z,1.60
2022-10-22T23:05:47.219Z,1.65
2022-10-22T23:08:16.045Z,2.03
2022-10-22T23:10:44.372Z,2.00
2022-10-22T23:13:12.704Z,1.77
2022-10-22T23:15:41.150Z,1.77
2022-10-22T23:18:10.457Z,1.70
2022-10-22T23:20:45.963Z,1.70
2022-10-22T23:23:22.703Z,2.20
2022-10-22T23:25:56.346Z,1.77
2022-10-22T23:28:32.101Z,2.38
2022-10-22T23:31:05.054Z,2.33
2022-10-22T23:33:33.569Z,2.05
2022-10-22T23:36:03.963Z,2.03
2022-10-22T23:38:35.679Z,2.38
2022-10-22T23:41:05.206Z,1.58
2022-10-22T23:43:36.045Z,1.95
2022-10-22T23:46:08.825Z,1.83
2022-10-22T23:48:37.319Z,1.80
2022-10-22T23:51:09.480Z,1.98
2022-10-22T23:53:37.997Z,2.00
2022-10-22T23:56:07.336Z,2.30
2022-10-22T23:58:37.347Z,2.67
